P.t. Monto — VMBF — position and weather

sailwx.info

Track history (hours):
 
Tides and Currents Weather Stations Pressure Air Temp Water Temp Dewpoint Dewpoint Depression Visibility Wind Speed Wind Dir Waves Ship Positions

P.t. Monto

Last reported at 2015-Jul-01 18:27 UTC. Time now 2015-Jul-03 07:56 UTC.
Position S 32°53' E 151°47'.

Length 32 m; draft 3.4 m.

Type: Tug. MMSI: 503612000.

Date/timePositionNaut miles runAvg speedWind from/ knotsBaromVisibWave heightAir tempDewpointWater temp
2015-Jul-01 18:27S 32°53' E 151°47'0 0.0
2015-Jul-01 14:13S 32°53' E 151°47'0 0.0
2015-Jul-01 13:32S 32°53' E 151°47'0 0.0
2015-Jul-01 01:33S 32°53' E 151°47'0 0.0
2015-Jun-30 21:26S 32°53' E 151°47'0 0.0
2015-Jun-30 20:32S 32°53' E 151°47'0 0.0
2015-Jun-30 18:26S 32°53' E 151°47'0 0.0
2015-Jun-30 17:33S 32°53' E 151°47'0 0.0
2015-Jun-30 16:26S 32°53' E 151°47'0 0.0
2015-Jun-30 15:33S 32°53' E 151°47'0 0.0
2015-Jun-30 14:22S 32°53' E 151°47'0 0.0
2015-Jun-30 05:32S 32°53' E 151°47'0 0.0
2015-Jun-30 04:11S 32°53' E 151°47'0 0.0
2015-Jun-30 03:32S 32°53' E 151°47'0 0.1
2015-Jun-30 02:33S 32°53' E 151°47'0 0.0
2015-Jun-30 01:18S 32°53' E 151°47'0 0.1
2015-Jun-30 00:32S 32°53' E 151°47'0 0.1
2015-Jun-29 23:33S 32°53' E 151°47'0 0.0
2015-Jun-29 22:20S 32°53' E 151°47'0 0.0
2015-Jun-29 21:33S 32°53' E 151°47'0 0.0
2015-Jun-29 20:33S 32°53' E 151°47'0 0.0
2015-Jun-29 18:05S 32°53' E 151°47'0 0.0
2015-Jun-29 17:33S 32°53' E 151°47'0 0.1
2015-Jun-29 16:33S 32°53' E 151°47'0 0.0
2015-Jun-29 15:33S 32°53' E 151°47'0 0.0
2015-Jun-29 14:21S 32°53' E 151°47'0 0.0
2015-Jun-29 12:17S 32°53' E 151°47'0 0.1
2015-Jun-29 11:33S 32°53' E 151°47'0 0.0
2015-Jun-29 10:33S 32°53' E 151°47'0 0.1
2015-Jun-29 09:33S 32°53' E 151°47'0 0.1
2015-Jun-29 08:33S 32°53' E 151°47'0 0.0
2015-Jun-29 07:32S 32°53' E 151°47'0 0.0
2015-Jun-29 03:04S 32°53' E 151°47'0 0.0
2015-Jun-28 05:33S 32°53' E 151°47'0 0.0
2015-Jun-28 00:16S 32°53' E 151°47'0 0.0
2015-Jun-27 23:33S 32°53' E 151°47'0 0.0
2015-Jun-27 22:30S 32°53' E 151°47'0 0.0
2015-Jun-27 21:33S 32°53' E 151°47'0 0.0
2015-Jun-27 20:23S 32°53' E 151°47'0 0.1
2015-Jun-27 19:32S 32°53' E 151°47'0 0.0
2015-Jun-27 15:30S 32°53' E 151°47'0 0.0
2015-Jun-27 13:17S 32°53' E 151°47'0 0.0
2015-Jun-26 23:22S 32°53' E 151°47'0 0.0
2015-Jun-26 22:29S 32°53' E 151°47'0 0.0
2015-Jun-26 21:32S 32°53' E 151°47'0 0.0
2015-Jun-26 20:27S 32°53' E 151°47'0 0.0
2015-Jun-26 19:08S 32°53' E 151°47'0 0.0
2015-Jun-26 18:33S 32°53' E 151°47'0 0.0
2015-Jun-26 17:30S 32°53' E 151°47'0 0.0
2015-Jun-26 16:29S 32°53' E 151°47'0 0.0
2015-Jun-26 13:33S 32°53' E 151°47'0 0.0
2015-Jun-24 23:10S 32°53' E 151°47'4 1.5
2015-Jun-24 20:33S 32°55' E 151°52'11 5.4
2015-Jun-24 18:33S 32°51' E 152°04'4 3.5
2015-Jun-24 17:33S 32°49' E 152°07'9 6.1
2015-Jun-24 16:10S 32°52' E 151°58'4 6.1
2015-Jun-24 15:32S 32°51' E 152°02'6 6.0
2015-Jun-24 14:33S 32°49' E 152°09'3 2.5
2015-Jun-24 13:33S 32°49' E 152°06'8 6.0
2015-Jun-24 12:18S 32°52' E 151°57'326 6.6
2015-Jun-22 11:13S 37°53' E 149°23'14 7.5
2015-Jun-22 09:21S 38°03' E 149°11'7 7.1
2015-Jun-22 08:18S 38°08' E 149°04'  
Track history (hours):
 
Tides and Currents Weather Stations Pressure Air Temp Water Temp Dewpoint Dewpoint Depression Visibility Wind Speed Wind Dir Waves Ship Positions

P.t. Monto

Last reported at 2015-Jul-01 18:27 UTC. Time now 2015-Jul-03 07:56 UTC.
Position S 32°53' E 151°47'.

Length 32 m; draft 3.4 m.

Type: Tug. MMSI: 503612000.

Date/timePositionNaut miles runAvg speedWind from/ knotsBaromVisibWave heightAir tempDewpointWater temp
2015-Jul-01 18:27S 32°53' E 151°47'0 0.0
2015-Jul-01 14:13S 32°53' E 151°47'0 0.0
2015-Jul-01 13:32S 32°53' E 151°47'0 0.0
2015-Jul-01 01:33S 32°53' E 151°47'0 0.0
2015-Jun-30 21:26S 32°53' E 151°47'0 0.0
2015-Jun-30 20:32S 32°53' E 151°47'0 0.0
2015-Jun-30 18:26S 32°53' E 151°47'0 0.0
2015-Jun-30 17:33S 32°53' E 151°47'0 0.0
2015-Jun-30 16:26S 32°53' E 151°47'0 0.0
2015-Jun-30 15:33S 32°53' E 151°47'0 0.0
2015-Jun-30 14:22S 32°53' E 151°47'0 0.0
2015-Jun-30 05:32S 32°53' E 151°47'0 0.0
2015-Jun-30 04:11S 32°53' E 151°47'0 0.0
2015-Jun-30 03:32S 32°53' E 151°47'0 0.1
2015-Jun-30 02:33S 32°53' E 151°47'0 0.0
2015-Jun-30 01:18S 32°53' E 151°47'0 0.1
2015-Jun-30 00:32S 32°53' E 151°47'0 0.1
2015-Jun-29 23:33S 32°53' E 151°47'0 0.0
2015-Jun-29 22:20S 32°53' E 151°47'0 0.0
2015-Jun-29 21:33S 32°53' E 151°47'0 0.0
2015-Jun-29 20:33S 32°53' E 151°47'0 0.0
2015-Jun-29 18:05S 32°53' E 151°47'0 0.0
2015-Jun-29 17:33S 32°53' E 151°47'0 0.1
2015-Jun-29 16:33S 32°53' E 151°47'0 0.0
2015-Jun-29 15:33S 32°53' E 151°47'0 0.0
2015-Jun-29 14:21S 32°53' E 151°47'0 0.0
2015-Jun-29 12:17S 32°53' E 151°47'0 0.1
2015-Jun-29 11:33S 32°53' E 151°47'0 0.0
2015-Jun-29 10:33S 32°53' E 151°47'0 0.1
2015-Jun-29 09:33S 32°53' E 151°47'0 0.1
2015-Jun-29 08:33S 32°53' E 151°47'0 0.0
2015-Jun-29 07:32S 32°53' E 151°47'0 0.0
2015-Jun-29 03:04S 32°53' E 151°47'0 0.0
2015-Jun-28 05:33S 32°53' E 151°47'0 0.0
2015-Jun-28 00:16S 32°53' E 151°47'0 0.0
2015-Jun-27 23:33S 32°53' E 151°47'0 0.0
2015-Jun-27 22:30S 32°53' E 151°47'0 0.0
2015-Jun-27 21:33S 32°53' E 151°47'0 0.0
2015-Jun-27 20:23S 32°53' E 151°47'0 0.1
2015-Jun-27 19:32S 32°53' E 151°47'0 0.0
2015-Jun-27 15:30S 32°53' E 151°47'0 0.0
2015-Jun-27 13:17S 32°53' E 151°47'0 0.0
2015-Jun-26 23:22S 32°53' E 151°47'0 0.0
2015-Jun-26 22:29S 32°53' E 151°47'0 0.0
2015-Jun-26 21:32S 32°53' E 151°47'0 0.0
2015-Jun-26 20:27S 32°53' E 151°47'0 0.0
2015-Jun-26 19:08S 32°53' E 151°47'0 0.0
2015-Jun-26 18:33S 32°53' E 151°47'0 0.0
2015-Jun-26 17:30S 32°53' E 151°47'0 0.0
2015-Jun-26 16:29S 32°53' E 151°47'0 0.0
2015-Jun-26 13:33S 32°53' E 151°47'0 0.0
2015-Jun-24 23:10S 32°53' E 151°47'4 1.5
2015-Jun-24 20:33S 32°55' E 151°52'11 5.4
2015-Jun-24 18:33S 32°51' E 152°04'4 3.5
2015-Jun-24 17:33S 32°49' E 152°07'9 6.1
2015-Jun-24 16:10S 32°52' E 151°58'4 6.1
2015-Jun-24 15:32S 32°51' E 152°02'6 6.0
2015-Jun-24 14:33S 32°49' E 152°09'3 2.5
2015-Jun-24 13:33S 32°49' E 152°06'8 6.0
2015-Jun-24 12:18S 32°52' E 151°57'326 6.6
2015-Jun-22 11:13S 37°53' E 149°23'14 7.5
2015-Jun-22 09:21S 38°03' E 149°11'7 7.1
2015-Jun-22 08:18S 38°08' E 149°04'  

Dump ship's entire track history